createdAt,value
2023-01-03T00:04:34.542Z,20.00
2023-01-03T00:09:37.281Z,16.42
2023-01-03T00:14:43.884Z,18.38
2023-01-03T00:19:46.798Z,14.13
2023-01-03T00:24:50.119Z,11.75
2023-01-03T00:29:52.815Z,22.52
2023-01-03T00:34:59.018Z,15.85
2023-01-03T00:40:06.575Z,15.82
2023-01-03T00:45:10.734Z,21.42
2023-01-03T00:50:13.604Z,18.27
2023-01-03T00:55:16.413Z,21.02
2023-01-03T01:00:19.140Z,18.15
2023-01-03T01:05:22.526Z,18.23
2023-01-03T01:10:25.597Z,17.17
2023-01-03T01:15:28.499Z,19.10
2023-01-03T01:20:31.134Z,21.70
2023-01-03T01:25:34.993Z,16.58
2023-01-03T01:35:40.896Z,15.15
2023-01-03T01:40:43.690Z,18.85
2023-01-03T01:45:46.961Z,22.73
2023-01-03T01:50:53.753Z,13.90
2023-01-03T01:56:29.284Z,17.30
2023-01-03T02:01:32.702Z,14.00
2023-01-03T02:06:35.941Z,14.38
2023-01-03T02:11:47.773Z,15.43
2023-01-03T02:17:08.453Z,15.70
2023-01-03T02:22:36.594Z,11.65
2023-01-03T02:28:17.045Z,15.90
2023-01-03T02:33:28.576Z,14.10
2023-01-03T02:38:49.575Z,15.35
2023-01-03T02:44:10.606Z,12.45
2023-01-03T02:49:24.841Z,12.65
2023-01-03T02:54:35.373Z,14.02
2023-01-03T02:59:51.522Z,15.73
2023-01-03T03:04:57.084Z,17.23
2023-01-03T03:10:18.468Z,14.05
2023-01-03T03:15:23.352Z,17.92
2023-01-03T03:20:44.347Z,13.23
2023-01-03T03:25:51.439Z,12.25
2023-01-03T03:30:57.789Z,15.30
2023-01-03T03:36:08.862Z,16.58
2023-01-03T03:41:38.974Z,13.20
2023-01-03T03:46:52.446Z,10.57
2023-01-03T03:52:00.828Z,9.77
2023-01-03T03:57:28.681Z,13.43
2023-01-03T04:02:33.341Z,16.45
2023-01-03T04:17:42.695Z,10.18
2023-01-03T04:22:45.435Z,11.40
2023-01-03T04:27:48.107Z,17.10
2023-01-03T04:32:50.795Z,12.25
2023-01-03T04:37:53.476Z,13.70
2023-01-03T04:43:14.529Z,16.70
2023-01-03T04:48:17.982Z,12.40
2023-01-03T04:53:21.175Z,10.50
2023-01-03T04:58:24.360Z,14.07
2023-01-03T05:03:28.178Z,11.63
2023-01-03T05:08:31.444Z,14.57
2023-01-03T05:13:34.499Z,11.27
2023-01-03T05:18:38.064Z,15.02
2023-01-03T05:23:59.345Z,17.20
2023-01-03T05:29:02.087Z,12.93
2023-01-03T05:34:05.774Z,16.27
2023-01-03T05:44:11.836Z,15.50
2023-01-03T05:49:14.649Z,12.77
2023-01-03T05:54:19.192Z,14.18
2023-01-03T06:04:25.812Z,14.10
2023-01-03T06:09:28.455Z,15.70
2023-01-03T06:14:31.182Z,16.40
2023-01-03T06:19:33.841Z,16.30
2023-01-03T06:24:36.580Z,14.25
2023-01-03T06:29:39.777Z,13.77
2023-01-03T06:34:42.531Z,14.00
2023-01-03T06:39:46.157Z,16.63
2023-01-03T06:45:08.781Z,20.23
2023-01-03T06:50:31.379Z,16.33
2023-01-03T06:55:34.029Z,13.00
2023-01-03T07:00:37.880Z,13.18
2023-01-03T07:05:40.600Z,14.57
2023-01-03T07:10:43.265Z,15.32
2023-01-03T07:15:46.273Z,17.52
2023-01-03T07:20:49.095Z,16.88
2023-01-03T07:25:55.628Z,16.42
2023-01-03T07:31:03.809Z,15.38
2023-01-03T07:36:12.082Z,16.58
2023-01-03T07:41:16.254Z,15.27
2023-01-03T07:46:21.696Z,15.52
2023-01-03T07:51:24.579Z,17.88
2023-01-03T07:56:27.276Z,19.05
2023-01-03T08:01:31.024Z,18.45
2023-01-03T08:06:33.990Z,17.63
2023-01-03T08:11:55.848Z,17.95
2023-01-03T08:16:58.537Z,16.55
2023-01-03T08:22:01.358Z,20.30
2023-01-03T08:27:05.277Z,18.88
2023-01-03T08:32:08.178Z,19.20
2023-01-03T08:37:12.104Z,19.70
2023-01-03T08:42:16.245Z,18.63
2023-01-03T08:47:18.995Z,27.63
2023-01-03T08:52:21.802Z,31.45
2023-01-03T08:57:24.526Z,30.00
2023-01-03T09:02:27.372Z,37.33
2023-01-03T09:07:30.105Z,38.33
2023-01-03T09:12:32.927Z,34.47
2023-01-03T09:17:35.645Z,31.45
2023-01-03T09:22:38.705Z,30.05
2023-01-03T09:27:48.503Z,33.85
2023-01-03T09:32:51.664Z,30.77
2023-01-03T09:37:54.637Z,35.72
2023-01-03T09:43:21.462Z,30.75
2023-01-03T09:48:35.853Z,35.10
2023-01-03T09:53:58.445Z,30.65
2023-01-03T09:59:27.567Z,38.58
2023-01-03T10:04:36.312Z,37.28
2023-01-03T10:09:47.603Z,40.67
2023-01-03T10:15:06.059Z,38.97
2023-01-03T10:20:47.266Z,42.33
2023-01-03T10:25:50.106Z,46.35
2023-01-03T10:31:08.674Z,44.60
2023-01-03T10:36:13.981Z,47.15
2023-01-03T10:41:22.034Z,49.33
2023-01-03T10:46:27.138Z,54.55
2023-01-03T10:51:43.210Z,54.08
2023-01-03T10:56:47.455Z,54.28
2023-01-03T11:02:16.937Z,65.63
2023-01-03T11:07:19.964Z,65.43
2023-01-03T11:12:38.907Z,58.72
2023-01-03T11:18:00.163Z,65.55
2023-01-03T11:23:04.363Z,62.58
2023-01-03T11:28:46.383Z,66.80
2023-01-03T11:33:57.537Z,53.90
2023-01-03T11:39:24.695Z,62.47
2023-01-03T11:44:45.966Z,53.40
2023-01-03T11:50:25.214Z,56.63
2023-01-03T11:55:52.234Z,64.65
2023-01-03T12:01:18.923Z,58.03
2023-01-03T12:06:32.939Z,51.65
2023-01-03T12:12:20.272Z,55.47
2023-01-03T12:17:25.881Z,63.75
2023-01-03T12:22:36.610Z,60.55
2023-01-03T12:27:44.380Z,63.28
2023-01-03T12:32:51.452Z,59.38
2023-01-03T12:37:55.679Z,59.03
2023-01-03T12:43:20.573Z,52.58
2023-01-03T12:49:01.556Z,49.78
2023-01-03T12:54:43.762Z,51.20
2023-01-03T13:00:10.976Z,55.38
2023-01-03T13:05:32.104Z,45.85
2023-01-03T13:10:37.399Z,47.47
2023-01-03T13:15:40.331Z,41.90
2023-01-03T13:20:47.951Z,37.60
2023-01-03T13:26:07.751Z,41.88
2023-01-03T13:31:19.365Z,46.30
2023-01-03T13:36:23.399Z,40.28
2023-01-03T13:41:29.238Z,35.30
2023-01-03T13:46:33.278Z,34.72
2023-01-03T13:51:47.609Z,45.65
2023-01-03T13:56:50.210Z,42.65
2023-01-03T14:02:10.820Z,37.45
2023-01-03T14:07:22.306Z,39.13
2023-01-03T14:12:43.787Z,38.20
2023-01-03T14:17:58.769Z,36.85
2023-01-03T14:23:31.737Z,36.90
2023-01-03T14:28:33.490Z,38.53
2023-01-03T14:33:44.494Z,32.15
2023-01-03T14:38:58.248Z,35.08
2023-01-03T14:44:10.088Z,38.10
2023-01-03T14:49:25.018Z,39.13
2023-01-03T14:54:28.219Z,35.33
2023-01-03T14:59:31.529Z,40.17
2023-01-03T15:04:34.481Z,33.05
2023-01-03T15:09:37.313Z,35.50
2023-01-03T15:14:40.339Z,37.58
2023-01-03T15:19:53.128Z,31.85
2023-01-03T15:25:08.872Z,32.65
2023-01-03T15:30:24.017Z,35.05
2023-01-03T15:35:41.647Z,33.92
2023-01-03T15:40:47.663Z,33.45
2023-01-03T15:46:04.106Z,39.03
2023-01-03T15:51:07.250Z,32.75
2023-01-03T15:56:21.493Z,35.10
2023-01-03T16:01:25.124Z,33.03
2023-01-03T16:06:28.028Z,38.20
2023-01-03T16:11:34.430Z,35.00
2023-01-03T16:16:41.691Z,28.67
2023-01-03T16:22:02.509Z,30.88
2023-01-03T16:27:22.363Z,26.77
2023-01-03T16:32:34.021Z,28.90
2023-01-03T16:37:36.596Z,30.92
2023-01-03T16:42:39.296Z,27.35
2023-01-03T16:47:43.415Z,21.27
2023-01-03T16:52:48.997Z,23.48
2023-01-03T16:57:54.441Z,25.92
2023-01-03T17:03:01.688Z,28.70
2023-01-03T17:08:23.459Z,27.95
2023-01-03T17:13:34.308Z,20.42
2023-01-03T17:18:42.486Z,21.73
2023-01-03T17:23:45.833Z,24.40
2023-01-03T17:28:49.549Z,20.15
2023-01-03T17:33:53.172Z,16.30
2023-01-03T17:39:00.293Z,20.77
2023-01-03T17:44:02.927Z,23.23
2023-01-03T17:49:24.607Z,23.77
2023-01-03T17:54:31.076Z,21.27
2023-01-03T17:59:33.771Z,20.02
2023-01-03T18:05:12.901Z,23.20
2023-01-03T18:09:59.253Z,28.95
2023-01-03T18:15:01.890Z,25.42
2023-01-03T18:20:06.821Z,19.17
2023-01-03T18:25:23.310Z,20.05
2023-01-03T18:30:26.226Z,22.45
2023-01-03T18:35:37.310Z,22.35
2023-01-03T18:40:41.026Z,23.25
2023-01-03T18:45:43.919Z,24.00
2023-01-03T18:50:55.627Z,22.15
2023-01-03T18:56:01.101Z,21.08
2023-01-03T19:01:05.607Z,16.98
2023-01-03T19:06:17.878Z,21.63
2023-01-03T19:11:26.847Z,18.38
2023-01-03T19:16:34.937Z,15.70
2023-01-03T19:21:46.343Z,17.63
2023-01-03T19:26:58.094Z,19.40
2023-01-03T19:32:00.944Z,18.70
2023-01-03T19:37:03.675Z,16.70
2023-01-03T19:42:29.029Z,15.45
2023-01-03T19:47:31.697Z,18.35
2023-01-03T19:52:34.395Z,15.90
2023-01-03T19:57:37.449Z,17.08
2023-01-03T20:02:41.323Z,15.05
2023-01-03T20:07:45.105Z,14.30
2023-01-03T20:12:49.279Z,14.37
2023-01-03T20:17:53.253Z,13.40
2023-01-03T20:23:05.226Z,14.73
2023-01-03T20:28:21.135Z,12.93
2023-01-03T20:33:24.303Z,12.93
2023-01-03T20:38:27.639Z,12.65
2023-01-03T20:43:30.341Z,12.40
2023-01-03T20:48:33.009Z,13.18
2023-01-03T20:53:39.762Z,16.85
2023-01-03T20:58:45.467Z,15.90
2023-01-03T21:03:48.291Z,12.02
2023-01-03T21:08:58.328Z,16.55
2023-01-03T21:14:02.081Z,15.35
2023-01-03T21:19:13.008Z,13.98
2023-01-03T21:24:17.786Z,6.68
2023-01-03T21:29:20.508Z,10.18
2023-01-03T21:34:23.305Z,11.00
2023-01-03T21:39:26.008Z,6.82
2023-01-03T21:44:28.978Z,6.78
2023-01-03T21:49:31.619Z,9.82
2023-01-03T21:54:34.315Z,9.30
2023-01-03T21:59:38.356Z,9.68
2023-01-03T22:04:41.208Z,9.40
2023-01-03T22:10:02.510Z,7.70
2023-01-03T22:15:05.872Z,8.48
2023-01-03T22:20:13.936Z,7.95
2023-01-03T22:25:19.327Z,10.10
2023-01-03T22:30:22.075Z,9.25
2023-01-03T22:35:25.171Z,8.07
2023-01-03T22:40:27.861Z,9.30
2023-01-03T22:45:30.558Z,9.00
2023-01-03T22:50:33.415Z,9.13
2023-01-03T22:55:40.988Z,8.98
2023-01-03T23:00:46.183Z,9.05
2023-01-03T23:05:48.982Z,8.00
2023-01-03T23:11:11.669Z,8.00
2023-01-03T23:16:14.440Z,8.63
2023-01-03T23:21:17.289Z,7.45
2023-01-03T23:26:19.995Z,7.30
2023-01-03T23:31:23.181Z,10.05
2023-01-03T23:36:26.473Z,7.87
2023-01-03T23:41:29.348Z,8.07
2023-01-03T23:46:32.111Z,8.70
2023-01-03T23:51:34.857Z,9.52
2023-01-03T23:56:37.912Z,6.95
